Jordan, MT

11:38 PM MDT on September 15, 2014 (GMT -0600)
Wokal-Glasgow International | Change Station
CLOSE
Current Station
Airport
Location: Glasgow,
Elevation: 2293 ft
Nearby Weather Stations

Elev 2293 ft 48.21 °N, 106.62 °W | Updated 45 minutes ago

Clear
Clear
51 °F
Feels Like 51 °F
N
10
Wind Variable Wind from East

Today
High -- | Low -- °F
--% Chance of Precip.
Yesterday
High -- | Low -- °F
Precip. -- in
6:45 AM 7:19 PM
Waning Gibbous, 49% visible
Pressure 30.04 in
Visibility 10.0 miles
Clouds Clear
Dew Point 37 °F
Humidity 59%
Rainfall 0.00 in
Snow Depth 1 in , 1 in , 1 in
UV 0 out of 12
Pollen 5.30 out of 12
Air Quality Not available.
Flu Activity Not available.
METAR KGGW 160453Z AUTO 09009KT 10SM CLR 11/03 A3003 RMK AO2 SLP172 T01060028

More Conditions Fewer Conditions

Pressure 30.04 in
Visibility 10.0 miles
Clouds Clear
Dew Point 37 °F
Humidity 59%
Rainfall 0.00 in
Snow Depth 1 in , 1 in , 1 in
UV 0 out of 12
Pollen 5.30 out of 12
Air Quality Not available.
Flu Activity Not available.
METAR KGGW 160453Z AUTO 09009KT 10SM CLR 11/03 A3003 RMK AO2 SLP172 T01060028

More Conditions Fewer Conditions

10-Day Weather Forecast

Almanac

Astronomy

Sep. 15, 2014 Rise Set
Actual Time 6:45 AM MDT 7:19 PM MDT
Civil Twilight 6:14 AM MDT 7:50 PM MDT
Nautical Twilight 5:37 AM MDT 8:26 PM MDT
Astronomical Twilight 4:59 AM MDT 9:04 PM MDT
Moon 11:41 PM MDT (9/15) 2:11 PM MDT (9/15)
Length of Visible Light 13h 35m
Length of Day
12h 34m
Tomorrow will be 3m 22s shorter.
Waning Gibbous, 49% of the Moon is Illuminated
Sep 16
Waning Gibbous
Sep 24
New
Oct 1
First Quarter
Oct 8
Full
Oct 15
Last Quarter

Yesterday's Extremes

State Highs State Lows

Community

WunderPhotos

Upload Photos

1,753,702 photos uploaded!

Nearby

Snow Depth

Station Depth Elevation
Crystal Lake 1 in 6050 ft
Fisher Creek 1 in 9100 ft
Porcupine 1 in 6500 ft
Barker Lakes 0 in 8250 ft
Wood Creek 1 in 5960 ft

Earthquake Activity

City Distance Mag. Time & Date
No recent earthquake activity has been reported nearby.
Minimum magnitude displayed is 2.5.

Coastal Water Temperatures

Place Temperature
No Stations Reporting

Nearby Weather Stations